sensor_id;sensor_type;location;lat;lon;timestamp;temperature;humidity
29295;DHT22;16305;48.566;8.846;2023-01-08T00:02:13;4.40;99.90
29295;DHT22;16305;48.566;8.846;2023-01-08T00:04:38;4.30;99.90
29295;DHT22;16305;48.566;8.846;2023-01-08T00:07:04;4.30;99.90
29295;DHT22;16305;48.566;8.846;2023-01-08T00:09:30;4.30;99.90
29295;DHT22;16305;48.566;8.846;2023-01-08T00:11:55;4.20;99.90
29295;DHT22;16305;48.566;8.846;2023-01-08T00:14:21;4.00;99.90
29295;DHT22;16305;48.566;8.846;2023-01-08T00:16:46;3.90;99.90
29295;DHT22;16305;48.566;8.846;2023-01-08T00:19:12;3.90;99.90
29295;DHT22;16305;48.566;8.846;2023-01-08T00:21:37;3.80;99.90
29295;DHT22;16305;48.566;8.846;2023-01-08T00:24:03;3.80;99.90
29295;DHT22;16305;48.566;8.846;2023-01-08T00:26:29;3.80;99.90
29295;DHT22;16305;48.566;8.846;2023-01-08T00:28:55;3.80;99.90
29295;DHT22;16305;48.566;8.846;2023-01-08T00:31:20;3.90;99.90
29295;DHT22;16305;48.566;8.846;2023-01-08T00:33:46;4.00;99.90
29295;DHT22;16305;48.566;8.846;2023-01-08T00:36:14;4.00;99.90
29295;DHT22;16305;48.566;8.846;2023-01-08T00:38:41;4.00;99.90
29295;DHT22;16305;48.566;8.846;2023-01-08T00:41:07;4.00;99.90
29295;DHT22;16305;48.566;8.846;2023-01-08T00:43:33;4.10;99.90
29295;DHT22;16305;48.566;8.846;2023-01-08T00:45:59;4.10;99.90
29295;DHT22;16305;48.566;8.846;2023-01-08T00:48:24;4.10;99.90
29295;DHT22;16305;48.566;8.846;2023-01-08T00:50:51;4.20;99.90
29295;DHT22;16305;48.566;8.846;2023-01-08T00:53:18;4.20;99.90
29295;DHT22;16305;48.566;8.846;2023-01-08T00:55:44;4.30;99.90
29295;DHT22;16305;48.566;8.846;2023-01-08T00:58:10;4.10;99.90
29295;DHT22;16305;48.566;8.846;2023-01-08T01:00:36;4.00;99.90
29295;DHT22;16305;48.566;8.846;2023-01-08T01:03:02;4.00;99.90
29295;DHT22;16305;48.566;8.846;2023-01-08T01:05:27;4.00;99.90
29295;DHT22;16305;48.566;8.846;2023-01-08T01:07:53;4.00;99.90
29295;DHT22;16305;48.566;8.846;2023-01-08T01:10:19;4.10;99.90
29295;DHT22;16305;48.566;8.846;2023-01-08T01:12:44;4.10;99.90
29295;DHT22;16305;48.566;8.846;2023-01-08T01:15:13;4.20;99.90
29295;DHT22;16305;48.566;8.846;2023-01-08T01:17:40;4.30;99.90
29295;DHT22;16305;48.566;8.846;2023-01-08T01:20:08;4.30;99.90
29295;DHT22;16305;48.566;8.846;2023-01-08T01:22:34;4.30;99.90
29295;DHT22;16305;48.566;8.846;2023-01-08T01:25:00;4.30;99.90
29295;DHT22;16305;48.566;8.846;2023-01-08T01:27:26;4.30;99.90
29295;DHT22;16305;48.566;8.846;2023-01-08T01:29:52;4.20;99.90
29295;DHT22;16305;48.566;8.846;2023-01-08T01:32:18;4.20;99.90
29295;DHT22;16305;48.566;8.846;2023-01-08T01:34:44;4.10;99.90
29295;DHT22;16305;48.566;8.846;2023-01-08T01:37:13;4.20;99.90
29295;DHT22;16305;48.566;8.846;2023-01-08T01:39:39;4.20;99.90
29295;DHT22;16305;48.566;8.846;2023-01-08T01:42:12;4.20;99.90
29295;DHT22;16305;48.566;8.846;2023-01-08T01:44:58;3.90;99.90
29295;DHT22;16305;48.566;8.846;2023-01-08T01:47:34;4.00;99.90
29295;DHT22;16305;48.566;8.846;2023-01-08T01:52:42;4.20;99.90
29295;DHT22;16305;48.566;8.846;2023-01-08T01:55:11;4.30;99.90
29295;DHT22;16305;48.566;8.846;2023-01-08T01:57:38;4.40;99.90
29295;DHT22;16305;48.566;8.846;2023-01-08T02:00:07;4.40;99.90
29295;DHT22;16305;48.566;8.846;2023-01-08T02:02:33;4.50;99.90
29295;DHT22;16305;48.566;8.846;2023-01-08T02:05:00;4.60;99.90
29295;DHT22;16305;48.566;8.846;2023-01-08T02:07:39;4.70;99.90
29295;DHT22;16305;48.566;8.846;2023-01-08T02:12:47;4.90;99.90
29295;DHT22;16305;48.566;8.846;2023-01-08T02:18:05;5.00;99.90
29295;DHT22;16305;48.566;8.846;2023-01-08T02:20:54;5.00;99.90
29295;DHT22;16305;48.566;8.846;2023-01-08T02:23:41;5.10;99.90
29295;DHT22;16305;48.566;8.846;2023-01-08T02:28:41;5.10;99.90
29295;DHT22;16305;48.566;8.846;2023-01-08T02:31:09;5.10;99.90
29295;DHT22;16305;48.566;8.846;2023-01-08T02:33:41;5.00;99.90
29295;DHT22;16305;48.566;8.846;2023-01-08T02:36:23;5.00;99.90
29295;DHT22;16305;48.566;8.846;2023-01-08T02:41:24;4.90;99.90
29295;DHT22;16305;48.566;8.846;2023-01-08T02:43:55;4.80;99.90
29295;DHT22;16305;48.566;8.846;2023-01-08T02:46:25;4.80;99.90
29295;DHT22;16305;48.566;8.846;2023-01-08T02:49:02;4.80;99.90
29295;DHT22;16305;48.566;8.846;2023-01-08T02:51:33;4.70;99.90
29295;DHT22;16305;48.566;8.846;2023-01-08T02:54:06;4.80;99.90
29295;DHT22;16305;48.566;8.846;2023-01-08T02:56:36;4.80;99.90
29295;DHT22;16305;48.566;8.846;2023-01-08T02:59:04;4.80;99.90
29295;DHT22;16305;48.566;8.846;2023-01-08T03:01:32;4.80;99.90
29295;DHT22;16305;48.566;8.846;2023-01-08T03:04:03;4.90;99.90
29295;DHT22;16305;48.566;8.846;2023-01-08T03:06:29;4.90;99.90
29295;DHT22;16305;48.566;8.846;2023-01-08T03:08:56;4.80;99.90
29295;DHT22;16305;48.566;8.846;2023-01-08T03:11:24;4.90;99.90
29295;DHT22;16305;48.566;8.846;2023-01-08T03:14:14;4.70;99.90
29295;DHT22;16305;48.566;8.846;2023-01-08T03:17:04;4.40;99.90
29295;DHT22;16305;48.566;8.846;2023-01-08T03:19:36;4.40;99.90
29295;DHT22;16305;48.566;8.846;2023-01-08T03:22:08;4.40;99.90
29295;DHT22;16305;48.566;8.846;2023-01-08T03:24:37;4.30;99.90
29295;DHT22;16305;48.566;8.846;2023-01-08T03:27:05;4.10;99.90
29295;DHT22;16305;48.566;8.846;2023-01-08T03:29:33;4.10;99.90
29295;DHT22;16305;48.566;8.846;2023-01-08T03:32:03;4.10;99.90
29295;DHT22;16305;48.566;8.846;2023-01-08T03:34:30;4.00;99.90
29295;DHT22;16305;48.566;8.846;2023-01-08T03:36:59;3.80;99.90
29295;DHT22;16305;48.566;8.846;2023-01-08T03:39:28;3.80;99.90
29295;DHT22;16305;48.566;8.846;2023-01-08T03:41:57;3.90;99.90
29295;DHT22;16305;48.566;8.846;2023-01-08T03:44:23;3.90;99.90
29295;DHT22;16305;48.566;8.846;2023-01-08T03:46:52;4.00;99.90
29295;DHT22;16305;48.566;8.846;2023-01-08T03:49:20;4.10;99.90
29295;DHT22;16305;48.566;8.846;2023-01-08T03:51:47;4.20;99.90
29295;DHT22;16305;48.566;8.846;2023-01-08T03:54:15;4.30;99.90
29295;DHT22;16305;48.566;8.846;2023-01-08T03:56:41;4.50;99.90
29295;DHT22;16305;48.566;8.846;2023-01-08T03:59:07;4.60;99.90
29295;DHT22;16305;48.566;8.846;2023-01-08T04:01:33;4.70;99.90
29295;DHT22;16305;48.566;8.846;2023-01-08T04:03:58;4.80;99.90
29295;DHT22;16305;48.566;8.846;2023-01-08T04:06:24;4.90;99.90
29295;DHT22;16305;48.566;8.846;2023-01-08T04:08:49;5.00;99.90
29295;DHT22;16305;48.566;8.846;2023-01-08T04:11:15;5.10;99.90
29295;DHT22;16305;48.566;8.846;2023-01-08T04:13:41;5.20;99.90
29295;DHT22;16305;48.566;8.846;2023-01-08T04:16:06;5.40;99.90
29295;DHT22;16305;48.566;8.846;2023-01-08T04:18:32;5.50;99.90
29295;DHT22;16305;48.566;8.846;2023-01-08T04:20:58;5.70;99.90
29295;DHT22;16305;48.566;8.846;2023-01-08T04:23:23;5.70;99.90
29295;DHT22;16305;48.566;8.846;2023-01-08T04:25:50;5.70;99.90
29295;DHT22;16305;48.566;8.846;2023-01-08T04:28:16;5.80;99.90
29295;DHT22;16305;48.566;8.846;2023-01-08T04:30:41;5.80;99.90
29295;DHT22;16305;48.566;8.846;2023-01-08T04:33:07;5.90;99.90
29295;DHT22;16305;48.566;8.846;2023-01-08T04:35:32;6.00;99.90
29295;DHT22;16305;48.566;8.846;2023-01-08T04:37:58;6.00;99.90
29295;DHT22;16305;48.566;8.846;2023-01-08T04:40:23;6.00;99.90
29295;DHT22;16305;48.566;8.846;2023-01-08T04:42:49;6.10;99.90
29295;DHT22;16305;48.566;8.846;2023-01-08T04:45:14;6.10;99.90
29295;DHT22;16305;48.566;8.846;2023-01-08T04:47:40;6.00;99.90
29295;DHT22;16305;48.566;8.846;2023-01-08T04:50:06;6.00;99.90
29295;DHT22;16305;48.566;8.846;2023-01-08T04:52:31;6.00;99.90
29295;DHT22;16305;48.566;8.846;2023-01-08T04:54:57;5.90;99.90
29295;DHT22;16305;48.566;8.846;2023-01-08T04:57:22;5.90;99.90
29295;DHT22;16305;48.566;8.846;2023-01-08T04:59:48;5.90;99.90
29295;DHT22;16305;48.566;8.846;2023-01-08T05:02:13;5.90;99.90
29295;DHT22;16305;48.566;8.846;2023-01-08T05:04:39;5.80;99.90
29295;DHT22;16305;48.566;8.846;2023-01-08T05:07:04;5.80;99.90
29295;DHT22;16305;48.566;8.846;2023-01-08T05:09:30;5.90;99.90
29295;DHT22;16305;48.566;8.846;2023-01-08T05:11:56;5.90;99.90
29295;DHT22;16305;48.566;8.846;2023-01-08T05:14:21;6.10;99.90
29295;DHT22;16305;48.566;8.846;2023-01-08T05:16:47;6.10;99.90
29295;DHT22;16305;48.566;8.846;2023-01-08T05:19:12;6.40;99.90
29295;DHT22;16305;48.566;8.846;2023-01-08T05:21:38;6.60;99.90
29295;DHT22;16305;48.566;8.846;2023-01-08T05:24:04;7.00;99.90
29295;DHT22;16305;48.566;8.846;2023-01-08T05:26:29;7.10;99.90
29295;DHT22;16305;48.566;8.846;2023-01-08T05:28:55;7.20;99.90
29295;DHT22;16305;48.566;8.846;2023-01-08T05:31:20;7.30;99.90
29295;DHT22;16305;48.566;8.846;2023-01-08T05:33:46;7.30;99.90
29295;DHT22;16305;48.566;8.846;2023-01-08T05:36:12;7.30;99.90
29295;DHT22;16305;48.566;8.846;2023-01-08T05:38:38;7.20;99.90
29295;DHT22;16305;48.566;8.846;2023-01-08T05:41:05;7.10;99.90
29295;DHT22;16305;48.566;8.846;2023-01-08T05:43:31;7.00;99.90
29295;DHT22;16305;48.566;8.846;2023-01-08T05:45:58;6.80;99.90
29295;DHT22;16305;48.566;8.846;2023-01-08T05:48:24;6.70;99.90
29295;DHT22;16305;48.566;8.846;2023-01-08T05:50:50;6.80;99.90
29295;DHT22;16305;48.566;8.846;2023-01-08T05:53:15;6.70;99.90
29295;DHT22;16305;48.566;8.846;2023-01-08T05:55:41;6.60;99.90
29295;DHT22;16305;48.566;8.846;2023-01-08T05:58:06;6.60;99.90
29295;DHT22;16305;48.566;8.846;2023-01-08T06:00:33;6.50;99.90
29295;DHT22;16305;48.566;8.846;2023-01-08T06:02:59;6.60;99.90
29295;DHT22;16305;48.566;8.846;2023-01-08T06:05:25;6.50;99.90
29295;DHT22;16305;48.566;8.846;2023-01-08T06:07:51;6.50;99.90
29295;DHT22;16305;48.566;8.846;2023-01-08T06:10:16;6.50;99.90
29295;DHT22;16305;48.566;8.846;2023-01-08T06:12:42;6.50;99.90
29295;DHT22;16305;48.566;8.846;2023-01-08T06:15:09;6.50;99.90
29295;DHT22;16305;48.566;8.846;2023-01-08T06:17:35;6.50;99.90
29295;DHT22;16305;48.566;8.846;2023-01-08T06:20:00;6.50;99.90
29295;DHT22;16305;48.566;8.846;2023-01-08T06:22:26;6.50;99.90
29295;DHT22;16305;48.566;8.846;2023-01-08T06:24:52;6.40;99.90
29295;DHT22;16305;48.566;8.846;2023-01-08T06:27:17;6.40;99.90
29295;DHT22;16305;48.566;8.846;2023-01-08T06:29:43;6.30;99.90
29295;DHT22;16305;48.566;8.846;2023-01-08T06:37:04;6.10;99.90
29295;DHT22;16305;48.566;8.846;2023-01-08T06:39:30;6.20;99.90
29295;DHT22;16305;48.566;8.846;2023-01-08T06:41:55;6.10;99.90
29295;DHT22;16305;48.566;8.846;2023-01-08T06:44:21;6.10;99.90
29295;DHT22;16305;48.566;8.846;2023-01-08T06:46:47;6.00;99.90
29295;DHT22;16305;48.566;8.846;2023-01-08T06:49:12;6.00;99.90
29295;DHT22;16305;48.566;8.846;2023-01-08T06:51:39;6.00;99.90
29295;DHT22;16305;48.566;8.846;2023-01-08T06:54:04;6.00;99.90
29295;DHT22;16305;48.566;8.846;2023-01-08T06:56:30;6.00;99.90
29295;DHT22;16305;48.566;8.846;2023-01-08T06:58:55;6.00;99.90
29295;DHT22;16305;48.566;8.846;2023-01-08T07:01:21;6.00;99.90
29295;DHT22;16305;48.566;8.846;2023-01-08T07:03:47;6.00;99.90
29295;DHT22;16305;48.566;8.846;2023-01-08T07:06:18;6.00;99.90
29295;DHT22;16305;48.566;8.846;2023-01-08T07:08:44;6.00;99.90
29295;DHT22;16305;48.566;8.846;2023-01-08T07:11:10;6.10;99.90
29295;DHT22;16305;48.566;8.846;2023-01-08T07:13:36;6.10;99.90
29295;DHT22;16305;48.566;8.846;2023-01-08T07:16:10;6.20;99.90
29295;DHT22;16305;48.566;8.846;2023-01-08T07:18:36;6.20;99.90
29295;DHT22;16305;48.566;8.846;2023-01-08T07:21:06;6.30;99.90
29295;DHT22;16305;48.566;8.846;2023-01-08T07:23:32;6.30;99.90
29295;DHT22;16305;48.566;8.846;2023-01-08T07:26:02;6.40;99.90
29295;DHT22;16305;48.566;8.846;2023-01-08T07:28:28;6.40;99.90
29295;DHT22;16305;48.566;8.846;2023-01-08T07:30:54;6.40;99.90
29295;DHT22;16305;48.566;8.846;2023-01-08T07:33:20;6.40;99.90
29295;DHT22;16305;48.566;8.846;2023-01-08T07:35:52;6.40;99.90
29295;DHT22;16305;48.566;8.846;2023-01-08T07:38:18;6.40;99.90
29295;DHT22;16305;48.566;8.846;2023-01-08T07:40:43;6.50;99.90
29295;DHT22;16305;48.566;8.846;2023-01-08T07:43:09;6.50;99.90
29295;DHT22;16305;48.566;8.846;2023-01-08T07:45:36;6.50;99.90
29295;DHT22;16305;48.566;8.846;2023-01-08T07:48:03;6.50;99.90
29295;DHT22;16305;48.566;8.846;2023-01-08T07:50:29;6.50;99.90
29295;DHT22;16305;48.566;8.846;2023-01-08T07:52:59;6.50;99.90
29295;DHT22;16305;48.566;8.846;2023-01-08T07:55:26;6.50;99.90
29295;DHT22;16305;48.566;8.846;2023-01-08T07:57:52;6.50;99.90
29295;DHT22;16305;48.566;8.846;2023-01-08T08:00:17;6.60;99.90
29295;DHT22;16305;48.566;8.846;2023-01-08T08:02:43;6.60;99.90
29295;DHT22;16305;48.566;8.846;2023-01-08T08:05:09;6.60;99.90
29295;DHT22;16305;48.566;8.846;2023-01-08T08:07:34;6.60;99.90
29295;DHT22;16305;48.566;8.846;2023-01-08T08:10:01;6.60;99.90
29295;DHT22;16305;48.566;8.846;2023-01-08T08:12:27;6.50;99.90
29295;DHT22;16305;48.566;8.846;2023-01-08T08:14:52;6.60;99.90
29295;DHT22;16305;48.566;8.846;2023-01-08T08:17:18;6.60;99.90
29295;DHT22;16305;48.566;8.846;2023-01-08T08:19:43;6.60;99.90
29295;DHT22;16305;48.566;8.846;2023-01-08T08:22:10;6.60;99.90
29295;DHT22;16305;48.566;8.846;2023-01-08T08:24:35;6.60;99.90
29295;DHT22;16305;48.566;8.846;2023-01-08T08:27:01;6.60;99.90
29295;DHT22;16305;48.566;8.846;2023-01-08T08:29:26;6.60;99.90
29295;DHT22;16305;48.566;8.846;2023-01-08T08:31:52;6.60;99.90
29295;DHT22;16305;48.566;8.846;2023-01-08T08:34:17;6.60;99.90
29295;DHT22;16305;48.566;8.846;2023-01-08T08:36:45;6.60;99.90
29295;DHT22;16305;48.566;8.846;2023-01-08T08:39:10;6.60;99.90
29295;DHT22;16305;48.566;8.846;2023-01-08T08:41:36;6.60;99.90
29295;DHT22;16305;48.566;8.846;2023-01-08T08:44:01;6.60;99.90
29295;DHT22;16305;48.566;8.846;2023-01-08T08:46:28;6.60;99.90
29295;DHT22;16305;48.566;8.846;2023-01-08T08:48:53;6.60;99.90
29295;DHT22;16305;48.566;8.846;2023-01-08T08:51:19;6.60;99.90
29295;DHT22;16305;48.566;8.846;2023-01-08T08:53:44;6.60;99.90
29295;DHT22;16305;48.566;8.846;2023-01-08T08:56:10;6.60;99.90
29295;DHT22;16305;48.566;8.846;2023-01-08T08:58:35;6.60;99.90
29295;DHT22;16305;48.566;8.846;2023-01-08T09:01:02;6.60;99.90
29295;DHT22;16305;48.566;8.846;2023-01-08T09:03:28;6.60;99.90
29295;DHT22;16305;48.566;8.846;2023-01-08T09:05:54;6.60;99.90
29295;DHT22;16305;48.566;8.846;2023-01-08T09:08:20;6.60;99.90
29295;DHT22;16305;48.566;8.846;2023-01-08T09:10:46;6.60;99.90
29295;DHT22;16305;48.566;8.846;2023-01-08T09:13:11;6.60;99.90
29295;DHT22;16305;48.566;8.846;2023-01-08T09:15:37;6.60;99.90
29295;DHT22;16305;48.566;8.846;2023-01-08T09:18:03;6.70;99.90
29295;DHT22;16305;48.566;8.846;2023-01-08T09:20:29;6.70;99.90
29295;DHT22;16305;48.566;8.846;2023-01-08T09:22:57;6.70;99.90
29295;DHT22;16305;48.566;8.846;2023-01-08T09:25:23;6.70;99.90
29295;DHT22;16305;48.566;8.846;2023-01-08T09:28:00;6.70;99.90
29295;DHT22;16305;48.566;8.846;2023-01-08T09:30:27;6.70;99.90
29295;DHT22;16305;48.566;8.846;2023-01-08T09:32:57;6.70;99.90
29295;DHT22;16305;48.566;8.846;2023-01-08T09:35:23;6.80;99.90
29295;DHT22;16305;48.566;8.846;2023-01-08T09:37:52;6.80;99.90
29295;DHT22;16305;48.566;8.846;2023-01-08T09:40:20;6.80;99.90
29295;DHT22;16305;48.566;8.846;2023-01-08T09:42:55;6.80;99.90
29295;DHT22;16305;48.566;8.846;2023-01-08T09:45:29;6.80;99.90
29295;DHT22;16305;48.566;8.846;2023-01-08T09:47:59;6.80;99.90
29295;DHT22;16305;48.566;8.846;2023-01-08T09:50:27;6.80;99.90
29295;DHT22;16305;48.566;8.846;2023-01-08T09:52:54;6.80;99.90
29295;DHT22;16305;48.566;8.846;2023-01-08T09:55:19;6.80;99.90
29295;DHT22;16305;48.566;8.846;2023-01-08T09:57:45;6.90;99.90
29295;DHT22;16305;48.566;8.846;2023-01-08T10:00:15;6.90;99.90
29295;DHT22;16305;48.566;8.846;2023-01-08T10:02:42;6.90;99.90
29295;DHT22;16305;48.566;8.846;2023-01-08T10:05:16;6.90;99.90
29295;DHT22;16305;48.566;8.846;2023-01-08T10:07:42;6.90;99.90
29295;DHT22;16305;48.566;8.846;2023-01-08T10:10:17;6.90;99.90
29295;DHT22;16305;48.566;8.846;2023-01-08T10:12:43;7.00;99.90
29295;DHT22;16305;48.566;8.846;2023-01-08T10:15:13;7.00;99.90
29295;DHT22;16305;48.566;8.846;2023-01-08T10:17:48;7.00;99.90
29295;DHT22;16305;48.566;8.846;2023-01-08T10:20:16;7.00;99.90
29295;DHT22;16305;48.566;8.846;2023-01-08T10:22:44;7.00;99.90
29295;DHT22;16305;48.566;8.846;2023-01-08T10:25:15;7.00;99.90
29295;DHT22;16305;48.566;8.846;2023-01-08T10:28:02;7.00;99.90
29295;DHT22;16305;48.566;8.846;2023-01-08T10:30:34;7.00;99.90
29295;DHT22;16305;48.566;8.846;2023-01-08T10:33:09;7.00;99.90
29295;DHT22;16305;48.566;8.846;2023-01-08T10:35:41;7.00;99.90
29295;DHT22;16305;48.566;8.846;2023-01-08T10:38:25;7.00;99.90
29295;DHT22;16305;48.566;8.846;2023-01-08T10:40:51;7.00;99.90
29295;DHT22;16305;48.566;8.846;2023-01-08T10:43:20;7.10;99.90
29295;DHT22;16305;48.566;8.846;2023-01-08T10:46:03;7.10;99.90
29295;DHT22;16305;48.566;8.846;2023-01-08T10:48:36;7.20;99.90
29295;DHT22;16305;48.566;8.846;2023-01-08T10:51:13;7.20;99.90
29295;DHT22;16305;48.566;8.846;2023-01-08T10:53:39;7.20;99.90
29295;DHT22;16305;48.566;8.846;2023-01-08T10:56:06;7.20;99.90
29295;DHT22;16305;48.566;8.846;2023-01-08T10:58:41;7.20;99.90
29295;DHT22;16305;48.566;8.846;2023-01-08T11:01:22;7.20;99.90
29295;DHT22;16305;48.566;8.846;2023-01-08T11:03:54;7.30;99.90
29295;DHT22;16305;48.566;8.846;2023-01-08T11:06:29;7.30;99.90
29295;DHT22;16305;48.566;8.846;2023-01-08T11:09:22;7.30;99.90
29295;DHT22;16305;48.566;8.846;2023-01-08T11:11:48;7.30;99.90
29295;DHT22;16305;48.566;8.846;2023-01-08T11:14:32;7.40;99.90
29295;DHT22;16305;48.566;8.846;2023-01-08T11:16:59;7.40;99.90
29295;DHT22;16305;48.566;8.846;2023-01-08T11:19:32;7.40;99.90
29295;DHT22;16305;48.566;8.846;2023-01-08T11:21:59;7.40;99.90
29295;DHT22;16305;48.566;8.846;2023-01-08T11:24:34;7.50;99.90
29295;DHT22;16305;48.566;8.846;2023-01-08T11:35:03;7.60;99.90
29295;DHT22;16305;48.566;8.846;2023-01-08T11:37:38;7.60;99.90
29295;DHT22;16305;48.566;8.846;2023-01-08T11:40:30;7.70;99.90
29295;DHT22;16305;48.566;8.846;2023-01-08T11:51:47;7.80;99.90
29295;DHT22;16305;48.566;8.846;2023-01-08T12:05:18;7.80;99.90
29295;DHT22;16305;48.566;8.846;2023-01-08T12:08:51;7.90;99.90
29295;DHT22;16305;48.566;8.846;2023-01-08T12:19:18;7.90;99.90
29295;DHT22;16305;48.566;8.846;2023-01-08T12:22:11;8.00;99.90
29295;DHT22;16305;48.566;8.846;2023-01-08T12:27:28;8.00;99.90
29295;DHT22;16305;48.566;8.846;2023-01-08T12:32:45;8.00;99.90
29295;DHT22;16305;48.566;8.846;2023-01-08T12:35:16;8.10;99.90
29295;DHT22;16305;48.566;8.846;2023-01-08T12:37:50;8.00;99.90
29295;DHT22;16305;48.566;8.846;2023-01-08T12:40:21;8.10;99.90
29295;DHT22;16305;48.566;8.846;2023-01-08T12:42:49;8.10;99.90
29295;DHT22;16305;48.566;8.846;2023-01-08T12:45:31;8.00;99.90
29295;DHT22;16305;48.566;8.846;2023-01-08T12:48:06;8.10;99.90
29295;DHT22;16305;48.566;8.846;2023-01-08T12:50:43;8.10;99.90
29295;DHT22;16305;48.566;8.846;2023-01-08T12:56:25;8.20;99.90
29295;DHT22;16305;48.566;8.846;2023-01-08T13:04:44;8.10;99.90
29295;DHT22;16305;48.566;8.846;2023-01-08T13:09:43;8.10;99.90
29295;DHT22;16305;48.566;8.846;2023-01-08T13:12:13;8.00;99.90
29295;DHT22;16305;48.566;8.846;2023-01-08T13:14:41;8.10;99.90
29295;DHT22;16305;48.566;8.846;2023-01-08T13:17:15;8.10;99.90
29295;DHT22;16305;48.566;8.846;2023-01-08T13:19:44;8.10;99.90
29295;DHT22;16305;48.566;8.846;2023-01-08T13:22:25;8.00;99.90
29295;DHT22;16305;48.566;8.846;2023-01-08T13:24:51;8.00;99.90
29295;DHT22;16305;48.566;8.846;2023-01-08T13:27:31;8.00;99.90
29295;DHT22;16305;48.566;8.846;2023-01-08T13:29:56;8.00;99.90
29295;DHT22;16305;48.566;8.846;2023-01-08T13:32:43;8.00;99.90
29295;DHT22;16305;48.566;8.846;2023-01-08T13:37:47;8.00;99.90
29295;DHT22;16305;48.566;8.846;2023-01-08T13:40:38;8.00;99.90
29295;DHT22;16305;48.566;8.846;2023-01-08T13:43:09;8.00;99.90
29295;DHT22;16305;48.566;8.846;2023-01-08T13:45:36;8.00;99.90
29295;DHT22;16305;48.566;8.846;2023-01-08T13:48:02;8.20;99.90
29295;DHT22;16305;48.566;8.846;2023-01-08T13:50:28;8.50;99.90
29295;DHT22;16305;48.566;8.846;2023-01-08T13:52:59;8.90;99.90
29295;DHT22;16305;48.566;8.846;2023-01-08T13:55:37;8.70;99.90
29295;DHT22;16305;48.566;8.846;2023-01-08T13:58:08;8.60;99.90
29295;DHT22;16305;48.566;8.846;2023-01-08T14:00:48;8.50;99.90
29295;DHT22;16305;48.566;8.846;2023-01-08T14:03:28;8.40;99.90
29295;DHT22;16305;48.566;8.846;2023-01-08T14:11:43;8.30;99.90
29295;DHT22;16305;48.566;8.846;2023-01-08T14:14:18;8.20;99.90
29295;DHT22;16305;48.566;8.846;2023-01-08T14:16:46;8.20;99.90
29295;DHT22;16305;48.566;8.846;2023-01-08T14:19:17;8.20;99.90
29295;DHT22;16305;48.566;8.846;2023-01-08T14:21:52;8.20;99.90
29295;DHT22;16305;48.566;8.846;2023-01-08T14:24:19;8.20;99.90
29295;DHT22;16305;48.566;8.846;2023-01-08T14:26:56;8.10;99.90
29295;DHT22;16305;48.566;8.846;2023-01-08T14:29:25;8.10;99.90
29295;DHT22;16305;48.566;8.846;2023-01-08T14:31:53;8.10;99.90
29295;DHT22;16305;48.566;8.846;2023-01-08T14:34:20;8.10;99.90
29295;DHT22;16305;48.566;8.846;2023-01-08T14:36:49;8.10;99.90
29295;DHT22;16305;48.566;8.846;2023-01-08T14:39:22;8.00;99.90
29295;DHT22;16305;48.566;8.846;2023-01-08T14:41:49;8.00;99.90
29295;DHT22;16305;48.566;8.846;2023-01-08T14:44:35;8.00;99.90
29295;DHT22;16305;48.566;8.846;2023-01-08T14:47:01;7.90;99.90
29295;DHT22;16305;48.566;8.846;2023-01-08T14:49:31;8.00;99.90
29295;DHT22;16305;48.566;8.846;2023-01-08T14:52:00;8.00;99.90
29295;DHT22;16305;48.566;8.846;2023-01-08T14:54:30;8.00;99.90
29295;DHT22;16305;48.566;8.846;2023-01-08T14:56:57;8.10;99.90
29295;DHT22;16305;48.566;8.846;2023-01-08T14:59:27;8.10;99.90
29295;DHT22;16305;48.566;8.846;2023-01-08T15:01:55;8.20;99.90
29295;DHT22;16305;48.566;8.846;2023-01-08T15:04:23;8.10;99.90
29295;DHT22;16305;48.566;8.846;2023-01-08T15:06:50;8.00;99.90
29295;DHT22;16305;48.566;8.846;2023-01-08T15:09:23;8.00;99.90
29295;DHT22;16305;48.566;8.846;2023-01-08T15:11:53;7.90;99.90
29295;DHT22;16305;48.566;8.846;2023-01-08T15:14:22;7.90;99.90
29295;DHT22;16305;48.566;8.846;2023-01-08T15:16:49;8.00;99.90
29295;DHT22;16305;48.566;8.846;2023-01-08T15:19:18;7.90;99.90
29295;DHT22;16305;48.566;8.846;2023-01-08T15:21:56;7.90;99.90
29295;DHT22;16305;48.566;8.846;2023-01-08T15:24:35;7.80;99.90
29295;DHT22;16305;48.566;8.846;2023-01-08T15:27:02;7.70;99.90
29295;DHT22;16305;48.566;8.846;2023-01-08T15:29:37;7.70;99.90
29295;DHT22;16305;48.566;8.846;2023-01-08T15:32:19;7.70;99.90
29295;DHT22;16305;48.566;8.846;2023-01-08T15:34:45;7.70;99.90
29295;DHT22;16305;48.566;8.846;2023-01-08T15:37:12;7.80;99.90
29295;DHT22;16305;48.566;8.846;2023-01-08T15:39:37;7.80;99.90
29295;DHT22;16305;48.566;8.846;2023-01-08T15:45:05;7.70;99.90
29295;DHT22;16305;48.566;8.846;2023-01-08T15:47:33;7.60;99.90
29295;DHT22;16305;48.566;8.846;2023-01-08T15:49:59;7.60;99.90
29295;DHT22;16305;48.566;8.846;2023-01-08T15:52:25;7.60;99.90
29295;DHT22;16305;48.566;8.846;2023-01-08T15:54:57;7.50;99.90
29295;DHT22;16305;48.566;8.846;2023-01-08T15:57:23;7.60;99.90
29295;DHT22;16305;48.566;8.846;2023-01-08T15:59:49;7.60;99.90
29295;DHT22;16305;48.566;8.846;2023-01-08T16:02:14;7.60;99.90
29295;DHT22;16305;48.566;8.846;2023-01-08T16:04:41;7.60;99.90
29295;DHT22;16305;48.566;8.846;2023-01-08T16:07:07;7.60;99.90
29295;DHT22;16305;48.566;8.846;2023-01-08T16:09:32;7.60;99.90
29295;DHT22;16305;48.566;8.846;2023-01-08T16:11:58;7.60;99.90
29295;DHT22;16305;48.566;8.846;2023-01-08T16:14:23;7.50;99.90
29295;DHT22;16305;48.566;8.846;2023-01-08T16:16:49;7.50;99.90
29295;DHT22;16305;48.566;8.846;2023-01-08T16:19:14;7.50;99.90
29295;DHT22;16305;48.566;8.846;2023-01-08T16:21:40;7.50;99.90
29295;DHT22;16305;48.566;8.846;2023-01-08T16:24:11;7.50;99.90
29295;DHT22;16305;48.566;8.846;2023-01-08T16:26:37;7.50;99.90
29295;DHT22;16305;48.566;8.846;2023-01-08T16:29:03;7.50;99.90
29295;DHT22;16305;48.566;8.846;2023-01-08T16:31:28;7.50;99.90
29295;DHT22;16305;48.566;8.846;2023-01-08T16:34:01;7.50;99.90
29295;DHT22;16305;48.566;8.846;2023-01-08T16:36:27;7.50;99.90
29295;DHT22;16305;48.566;8.846;2023-01-08T16:38:52;7.50;99.90
29295;DHT22;16305;48.566;8.846;2023-01-08T16:41:18;7.50;99.90
29295;DHT22;16305;48.566;8.846;2023-01-08T16:43:43;7.50;99.90
29295;DHT22;16305;48.566;8.846;2023-01-08T16:46:13;7.50;99.90
29295;DHT22;16305;48.566;8.846;2023-01-08T16:48:40;7.50;99.90
29295;DHT22;16305;48.566;8.846;2023-01-08T16:51:06;7.50;99.90
29295;DHT22;16305;48.566;8.846;2023-01-08T16:53:32;7.40;99.90
29295;DHT22;16305;48.566;8.846;2023-01-08T16:56:00;7.40;99.90
29295;DHT22;16305;48.566;8.846;2023-01-08T16:58:25;7.40;99.90
29295;DHT22;16305;48.566;8.846;2023-01-08T17:00:51;7.40;99.90
29295;DHT22;16305;48.566;8.846;2023-01-08T17:03:16;7.40;99.90
29295;DHT22;16305;48.566;8.846;2023-01-08T17:05:42;7.40;99.90
29295;DHT22;16305;48.566;8.846;2023-01-08T17:08:08;7.40;99.90
29295;DHT22;16305;48.566;8.846;2023-01-08T17:10:38;7.40;99.90
29295;DHT22;16305;48.566;8.846;2023-01-08T17:13:04;7.40;99.90
29295;DHT22;16305;48.566;8.846;2023-01-08T17:15:29;7.40;99.90
29295;DHT22;16305;48.566;8.846;2023-01-08T17:17:55;7.40;99.90